createdAt,value
2023-04-10T00:02:08.679Z,54.20
2023-04-10T00:04:35.745Z,54.30
2023-04-10T00:07:02.648Z,54.30
2023-04-10T00:09:29.763Z,54.20
2023-04-10T00:11:56.995Z,54.40
2023-04-10T00:14:24.599Z,54.10
2023-04-10T00:16:51.585Z,54.10
2023-04-10T00:19:18.728Z,54.20
2023-04-10T00:21:45.719Z,54.10
2023-04-10T00:24:12.492Z,54.20
2023-04-10T00:26:39.250Z,54.30
2023-04-10T00:29:06.604Z,54.20
2023-04-10T00:31:33.397Z,54.20
2023-04-10T00:34:00.484Z,54.30
2023-04-10T00:36:28.087Z,53.90
2023-04-10T00:38:55.087Z,54.00
2023-04-10T00:41:24.020Z,54.00
2023-04-10T00:43:55.260Z,54.00
2023-04-10T00:46:22.959Z,54.10
2023-04-10T00:48:50.532Z,53.70
2023-04-10T00:51:19.337Z,53.60
2023-04-10T00:53:47.414Z,53.40
2023-04-10T00:56:14.664Z,53.30
2023-04-10T00:58:41.537Z,53.20
2023-04-10T01:01:08.730Z,53.20
2023-04-10T01:03:36.286Z,53.50
2023-04-10T01:06:09.507Z,53.50
2023-04-10T01:08:52.460Z,53.60
2023-04-10T01:11:27.859Z,53.60
2023-04-10T01:14:01.461Z,53.60
2023-04-10T01:16:34.174Z,53.50
2023-04-10T01:19:07.227Z,53.40
2023-04-10T01:21:36.619Z,53.50
2023-04-10T01:24:06.515Z,53.60
2023-04-10T01:26:33.269Z,53.60
2023-04-10T01:29:01.392Z,53.60
2023-04-10T01:31:37.103Z,53.60
2023-04-10T01:34:06.406Z,53.60
2023-04-10T01:36:36.154Z,53.60
2023-04-10T01:39:03.760Z,53.40
2023-04-10T01:41:31.598Z,53.40
2023-04-10T01:43:58.599Z,53.50
2023-04-10T01:46:27.352Z,53.50
2023-04-10T01:48:54.641Z,53.50
2023-04-10T01:51:22.119Z,53.60
2023-04-10T01:53:49.117Z,53.50
2023-04-10T01:56:16.616Z,53.60
2023-04-10T01:58:43.719Z,53.30
2023-04-10T02:01:22.564Z,53.10
2023-04-10T02:03:56.014Z,53.40
2023-04-10T02:07:01.851Z,53.30
2023-04-10T02:09:37.868Z,53.40
2023-04-10T02:12:06.800Z,53.40
2023-04-10T02:14:36.407Z,53.60
2023-04-10T02:17:03.766Z,53.30
2023-04-10T02:19:32.110Z,53.30
2023-04-10T02:21:59.208Z,53.30
2023-04-10T02:24:26.217Z,53.30
2023-04-10T02:26:53.342Z,53.50
2023-04-10T02:29:20.222Z,53.30
2023-04-10T02:31:47.294Z,53.20
2023-04-10T02:34:14.333Z,53.30
2023-04-10T02:36:41.337Z,53.20
2023-04-10T02:39:08.710Z,53.30
2023-04-10T02:41:35.575Z,53.10
2023-04-10T02:44:02.336Z,53.10
2023-04-10T02:46:29.250Z,53.30
2023-04-10T02:48:56.219Z,53.10
2023-04-10T02:51:22.997Z,53.10
2023-04-10T02:53:49.864Z,53.10
2023-04-10T02:56:16.742Z,52.80
2023-04-10T02:58:46.266Z,52.70
2023-04-10T03:01:13.410Z,52.90
2023-04-10T03:03:40.484Z,53.00
2023-04-10T03:06:08.107Z,53.10
2023-04-10T03:08:35.002Z,53.40
2023-04-10T03:11:02.090Z,52.90
2023-04-10T03:13:28.877Z,52.70
2023-04-10T03:15:55.781Z,52.70
2023-04-10T03:18:22.636Z,52.60
2023-04-10T03:20:49.517Z,52.80
2023-04-10T03:23:16.530Z,52.80
2023-04-10T03:25:45.195Z,53.00
2023-04-10T03:28:12.076Z,53.00
2023-04-10T03:30:38.970Z,52.60
2023-04-10T03:33:06.082Z,52.70
2023-04-10T03:35:33.020Z,52.60
2023-04-10T03:37:59.845Z,52.90
2023-04-10T03:40:26.609Z,52.80
2023-04-10T03:42:53.483Z,52.90
2023-04-10T03:45:20.244Z,52.80
2023-04-10T03:47:47.283Z,52.60
2023-04-10T03:50:14.006Z,52.50
2023-04-10T03:52:40.888Z,52.60
2023-04-10T03:55:07.774Z,52.60
2023-04-10T03:57:34.533Z,52.40
2023-04-10T04:00:01.443Z,52.40
2023-04-10T04:02:28.507Z,52.30
2023-04-10T04:04:55.561Z,52.30
2023-04-10T04:07:22.531Z,52.30
2023-04-10T04:09:49.412Z,52.10
2023-04-10T04:12:16.169Z,52.00
2023-04-10T04:14:44.136Z,51.90
2023-04-10T04:17:11.381Z,51.90
2023-04-10T04:19:38.155Z,51.90
2023-04-10T04:22:05.021Z,51.90
2023-04-10T04:24:31.901Z,51.90
2023-04-10T04:26:58.777Z,52.00
2023-04-10T04:29:25.779Z,52.10
2023-04-10T04:31:52.799Z,52.00
2023-04-10T04:34:19.543Z,51.70
2023-04-10T04:36:46.307Z,51.40
2023-04-10T04:39:13.187Z,51.50
2023-04-10T04:41:39.946Z,51.50
2023-04-10T04:44:06.957Z,51.50
2023-04-10T04:46:33.830Z,51.60
2023-04-10T04:49:00.589Z,51.70
2023-04-10T04:51:27.478Z,51.50
2023-04-10T04:53:54.447Z,51.50
2023-04-10T04:56:21.521Z,51.50
2023-04-10T04:58:48.354Z,51.40
2023-04-10T05:01:15.156Z,51.30
2023-04-10T05:03:42.100Z,51.40
2023-04-10T05:06:08.903Z,51.20
2023-04-10T05:08:35.874Z,51.50
2023-04-10T05:11:02.681Z,51.10
2023-04-10T05:13:29.518Z,51.00
2023-04-10T05:15:56.439Z,51.00
2023-04-10T05:18:24.047Z,50.90
2023-04-10T05:20:50.996Z,51.00
2023-04-10T05:23:17.880Z,52.00
2023-04-10T05:25:44.764Z,51.80
2023-04-10T05:28:11.642Z,51.40
2023-04-10T05:30:38.411Z,50.80
2023-04-10T05:33:05.406Z,51.10
2023-04-10T05:35:32.176Z,51.20
2023-04-10T05:37:59.196Z,50.80
2023-04-10T05:40:26.301Z,51.50
2023-04-10T05:42:53.178Z,51.30
2023-04-10T05:45:19.946Z,50.80
2023-04-10T05:47:46.863Z,50.60
2023-04-10T05:50:13.595Z,50.60
2023-04-10T05:52:40.582Z,50.80
2023-04-10T05:55:07.818Z,50.70
2023-04-10T05:57:34.575Z,50.80
2023-04-10T06:00:01.452Z,50.40
2023-04-10T06:02:28.381Z,51.60
2023-04-10T06:04:55.699Z,50.90
2023-04-10T06:07:22.715Z,51.00
2023-04-10T06:09:49.584Z,50.80
2023-04-10T06:12:17.304Z,50.90
2023-04-10T06:14:44.071Z,50.80
2023-04-10T06:17:11.397Z,51.00
2023-04-10T06:19:38.302Z,51.10
2023-04-10T06:22:05.182Z,51.60
2023-04-10T06:24:32.307Z,51.30
2023-04-10T06:26:59.073Z,51.20
2023-04-10T06:29:25.952Z,50.80
2023-04-10T06:31:52.829Z,50.90
2023-04-10T06:34:19.836Z,51.00
2023-04-10T06:36:46.721Z,51.20
2023-04-10T06:39:13.593Z,51.40
2023-04-10T06:41:40.362Z,51.80
2023-04-10T06:44:07.133Z,51.70
2023-04-10T06:46:33.917Z,52.10
2023-04-10T06:49:00.791Z,51.00
2023-04-10T06:51:27.769Z,51.80
2023-04-10T06:53:54.666Z,51.10
2023-04-10T06:56:21.520Z,51.30
2023-04-10T06:58:48.285Z,51.20
2023-04-10T07:01:15.095Z,51.30
2023-04-10T07:03:42.101Z,51.50
2023-04-10T07:06:10.149Z,51.30
2023-04-10T07:08:36.890Z,51.50
2023-04-10T07:11:03.651Z,51.50
2023-04-10T07:13:30.526Z,52.30
2023-04-10T07:15:57.201Z,51.70
2023-04-10T07:18:24.075Z,51.70
2023-04-10T07:20:51.307Z,51.80
2023-04-10T07:23:18.292Z,52.20
2023-04-10T07:25:45.053Z,51.90
2023-04-10T07:28:11.962Z,52.10
2023-04-10T07:30:38.814Z,52.30
2023-04-10T07:33:06.331Z,52.20
2023-04-10T07:35:33.184Z,52.40
2023-04-10T07:38:01.510Z,52.30
2023-04-10T07:40:28.262Z,52.20
2023-04-10T07:42:55.019Z,52.50
2023-04-10T07:45:21.914Z,52.50
2023-04-10T07:47:48.820Z,52.90
2023-04-10T07:50:16.329Z,53.30
2023-04-10T07:52:43.275Z,53.10
2023-04-10T07:55:10.692Z,52.70
2023-04-10T07:57:37.526Z,52.80
2023-04-10T08:00:04.635Z,52.80
2023-04-10T08:02:31.673Z,53.50
2023-04-10T08:04:58.898Z,53.60
2023-04-10T08:07:25.746Z,53.80
2023-04-10T08:09:52.509Z,53.80
2023-04-10T08:12:19.270Z,53.70
2023-04-10T08:14:46.154Z,53.40
2023-04-10T08:17:15.029Z,53.70
2023-04-10T08:19:42.322Z,53.60
2023-04-10T08:22:09.315Z,53.40
2023-04-10T08:24:36.194Z,53.80
2023-04-10T08:27:02.953Z,54.10
2023-04-10T08:29:29.735Z,54.00
2023-04-10T08:31:58.995Z,54.20
2023-04-10T08:34:25.756Z,54.10
2023-04-10T08:36:52.518Z,54.30
2023-04-10T08:39:19.326Z,54.20
2023-04-10T08:41:46.160Z,54.00
2023-04-10T08:44:13.042Z,54.00
2023-04-10T08:46:42.764Z,54.30
2023-04-10T08:49:10.646Z,54.50
2023-04-10T08:51:41.859Z,54.50
2023-04-10T08:54:14.366Z,54.70
2023-04-10T08:56:42.805Z,54.50
2023-04-10T08:59:09.579Z,54.40
2023-04-10T09:01:36.679Z,54.20
2023-04-10T09:04:03.750Z,54.30
2023-04-10T09:06:31.576Z,54.30
2023-04-10T09:11:46.772Z,54.60
2023-04-10T09:14:29.503Z,54.90
2023-04-10T09:17:16.898Z,54.70
2023-04-10T09:19:44.748Z,54.70
2023-04-10T09:22:11.617Z,55.50
2023-04-10T09:24:39.351Z,54.80
2023-04-10T09:27:06.465Z,54.90
2023-04-10T09:29:44.016Z,54.60
2023-04-10T09:32:11.631Z,55.00
2023-04-10T09:34:58.698Z,55.00
2023-04-10T09:37:31.549Z,54.80
2023-04-10T09:39:58.309Z,54.90
2023-04-10T09:42:36.466Z,55.10
2023-04-10T09:45:04.096Z,55.10
2023-04-10T09:47:31.101Z,55.50
2023-04-10T09:50:00.852Z,55.30
2023-04-10T09:52:29.040Z,54.80
2023-04-10T09:54:56.754Z,54.80
2023-04-10T09:57:24.228Z,54.70
2023-04-10T09:59:51.960Z,55.00
2023-04-10T10:02:19.570Z,55.50
2023-04-10T10:04:49.971Z,55.20
2023-04-10T10:07:17.509Z,55.10
2023-04-10T10:09:45.006Z,55.00
2023-04-10T10:12:12.847Z,54.90
2023-04-10T10:14:52.445Z,54.80
2023-04-10T10:17:21.725Z,54.80
2023-04-10T10:19:54.010Z,54.80
2023-04-10T10:22:22.081Z,54.80
2023-04-10T10:24:49.327Z,54.60
2023-04-10T10:27:16.569Z,55.30
2023-04-10T10:29:44.410Z,54.80
2023-04-10T10:32:11.530Z,54.40
2023-04-10T10:34:38.646Z,54.70
2023-04-10T10:37:06.014Z,54.70
2023-04-10T10:39:41.894Z,54.50
2023-04-10T10:42:08.653Z,54.30
2023-04-10T10:44:44.316Z,54.60
2023-04-10T10:47:23.247Z,54.50
2023-04-10T10:49:54.628Z,54.40
2023-04-10T10:52:49.245Z,54.20
2023-04-10T10:55:22.099Z,54.30
2023-04-10T10:57:49.949Z,54.50
2023-04-10T11:00:16.942Z,54.40
2023-04-10T11:02:44.000Z,54.50
2023-04-10T11:05:10.942Z,54.30
2023-04-10T11:07:56.189Z,54.90
2023-04-10T11:10:41.668Z,54.40
2023-04-10T11:13:18.454Z,54.30
2023-04-10T11:15:45.747Z,54.30
2023-04-10T11:18:12.633Z,54.30
2023-04-10T11:20:59.669Z,54.50
2023-04-10T11:23:26.792Z,54.50
2023-04-10T11:25:54.673Z,54.40
2023-04-10T11:28:34.013Z,54.50
2023-04-10T11:31:20.976Z,54.30
2023-04-10T11:33:54.531Z,54.50
2023-04-10T11:36:21.391Z,54.30
2023-04-10T11:39:02.458Z,54.40
2023-04-10T11:41:36.751Z,54.50
2023-04-10T11:44:04.353Z,54.50
2023-04-10T11:46:31.745Z,54.30
2023-04-10T11:48:59.435Z,54.40
2023-04-10T11:51:29.113Z,54.40
2023-04-10T11:54:07.134Z,54.30
2023-04-10T11:56:34.000Z,54.30
2023-04-10T11:59:02.574Z,54.50
2023-04-10T12:01:29.323Z,54.50
2023-04-10T12:03:56.704Z,54.50
2023-04-10T12:06:23.920Z,54.60
2023-04-10T12:08:51.377Z,54.70
2023-04-10T12:11:28.962Z,54.50
2023-04-10T12:13:56.442Z,54.50
2023-04-10T12:16:27.467Z,54.70
2023-04-10T12:18:54.703Z,54.70
2023-04-10T12:21:21.886Z,54.80
2023-04-10T12:23:48.666Z,54.70
2023-04-10T12:26:18.852Z,54.60
2023-04-10T12:28:53.420Z,54.70
2023-04-10T12:31:29.456Z,54.60
2023-04-10T12:33:59.222Z,54.80
2023-04-10T12:36:30.210Z,54.90
2023-04-10T12:38:57.540Z,54.80
2023-04-10T12:41:25.623Z,54.70
2023-04-10T12:43:53.595Z,55.00
2023-04-10T12:46:26.104Z,54.80
2023-04-10T12:48:53.294Z,54.80
2023-04-10T12:51:20.353Z,54.80
2023-04-10T12:53:47.227Z,54.80
2023-04-10T12:56:14.832Z,54.60
2023-04-10T12:58:42.713Z,54.70
2023-04-10T13:01:09.926Z,54.50
2023-04-10T13:03:37.403Z,54.30
2023-04-10T13:06:07.759Z,54.50
2023-04-10T13:08:34.876Z,54.30
2023-04-10T13:11:03.671Z,54.40
2023-04-10T13:13:31.512Z,54.30
2023-04-10T13:15:59.016Z,54.60
2023-04-10T13:18:26.003Z,54.30
2023-04-10T13:20:53.114Z,54.30
2023-04-10T13:23:19.994Z,54.30
2023-04-10T13:25:47.002Z,54.40
2023-04-10T13:28:14.121Z,54.00
2023-04-10T13:30:41.712Z,54.20
2023-04-10T13:33:08.807Z,54.20
2023-04-10T13:35:35.759Z,54.30
2023-04-10T13:38:02.600Z,54.30
2023-04-10T13:40:29.489Z,54.20
2023-04-10T13:42:56.367Z,54.20
2023-04-10T13:45:23.246Z,54.30
2023-04-10T13:47:50.158Z,54.20
2023-04-10T13:50:16.903Z,54.20
2023-04-10T13:52:43.688Z,54.20
2023-04-10T13:55:10.769Z,54.20
2023-04-10T13:57:38.261Z,54.20
2023-04-10T14:00:05.544Z,54.00
2023-04-10T14:02:33.952Z,54.20
2023-04-10T14:05:00.814Z,54.00
2023-04-10T14:07:27.696Z,54.00
2023-04-10T14:09:54.459Z,53.60
2023-04-10T14:12:23.260Z,53.90
2023-04-10T14:14:50.202Z,53.80
2023-04-10T14:17:17.136Z,53.60
2023-04-10T14:19:44.021Z,53.80
2023-04-10T14:22:10.806Z,53.50
2023-04-10T14:24:37.657Z,53.80
2023-04-10T14:27:04.431Z,53.80
2023-04-10T14:29:37.280Z,54.00
2023-04-10T14:32:06.087Z,53.50
2023-04-10T14:34:32.983Z,53.50
2023-04-10T14:36:59.767Z,53.80
2023-04-10T14:39:26.631Z,53.80
2023-04-10T14:41:53.504Z,53.80
2023-04-10T14:44:20.278Z,53.90
2023-04-10T14:46:47.541Z,53.70
2023-04-10T14:49:14.880Z,53.30
2023-04-10T14:51:45.353Z,53.40
2023-04-10T14:54:12.258Z,53.40
2023-04-10T14:56:39.115Z,53.40
2023-04-10T14:59:07.176Z,53.30
2023-04-10T15:01:35.603Z,53.30
2023-04-10T15:04:02.665Z,53.30
2023-04-10T15:06:29.655Z,53.40
2023-04-10T15:08:56.640Z,52.60
2023-04-10T15:11:23.641Z,52.70
2023-04-10T15:13:50.530Z,52.70
2023-04-10T15:16:17.440Z,52.00
2023-04-10T15:18:46.683Z,52.00
2023-04-10T15:21:13.445Z,52.50
2023-04-10T15:23:40.331Z,53.10
2023-04-10T15:26:14.169Z,53.10
2023-04-10T15:28:41.888Z,53.20
2023-04-10T15:31:09.335Z,53.00
2023-04-10T15:33:38.046Z,52.90
2023-04-10T15:36:05.244Z,52.80
2023-04-10T15:38:33.609Z,53.20
2023-04-10T15:41:00.371Z,53.20
2023-04-10T15:43:27.623Z,53.30
2023-04-10T15:45:54.536Z,53.30
2023-04-10T15:48:22.694Z,53.40
2023-04-10T15:50:49.574Z,53.40
2023-04-10T15:53:16.455Z,53.40
2023-04-10T15:55:43.219Z,53.40
2023-04-10T15:58:10.099Z,53.20
2023-04-10T16:00:36.992Z,53.30
2023-04-10T16:03:04.001Z,53.50
2023-04-10T16:05:30.991Z,53.10
2023-04-10T16:07:57.860Z,52.80
2023-04-10T16:10:24.752Z,52.70
2023-04-10T16:12:51.517Z,52.50
2023-04-10T16:15:18.397Z,52.60
2023-04-10T16:17:45.311Z,52.70
2023-04-10T16:20:12.636Z,52.50
2023-04-10T16:22:39.510Z,52.30
2023-04-10T16:25:06.512Z,52.40
2023-04-10T16:27:33.416Z,52.50
2023-04-10T16:30:00.280Z,52.60
2023-04-10T16:32:27.448Z,52.70
2023-04-10T16:34:54.752Z,52.90
2023-04-10T16:37:21.514Z,53.00
2023-04-10T16:39:48.277Z,53.10
2023-04-10T16:42:15.291Z,53.00
2023-04-10T16:44:42.037Z,53.20
2023-04-10T16:47:08.967Z,52.70
2023-04-10T16:49:35.916Z,52.60
2023-04-10T16:52:02.678Z,52.40
2023-04-10T16:54:29.445Z,52.30
2023-04-10T16:56:57.056Z,52.10
2023-04-10T16:59:23.920Z,51.80
2023-04-10T17:01:51.581Z,52.00
2023-04-10T17:04:20.209Z,52.00
2023-04-10T17:06:47.085Z,52.40
2023-04-10T17:09:13.968Z,52.00
2023-04-10T17:11:40.852Z,51.80
2023-04-10T17:14:08.209Z,52.00
2023-04-10T17:16:35.157Z,52.00
2023-04-10T17:19:01.984Z,52.00
2023-04-10T17:21:28.875Z,52.20
2023-04-10T17:23:55.736Z,52.40
2023-04-10T17:26:23.365Z,52.10
2023-04-10T17:28:50.464Z,52.10
2023-04-10T17:31:17.359Z,51.80
2023-04-10T17:33:44.217Z,52.00
2023-04-10T17:36:12.370Z,52.30
2023-04-10T17:38:39.661Z,52.30
2023-04-10T17:41:06.541Z,52.30
2023-04-10T17:43:33.786Z,52.30
2023-04-10T17:46:00.918Z,52.40
2023-04-10T17:48:27.856Z,52.30
2023-04-10T17:50:54.794Z,52.70
2023-04-10T17:53:21.559Z,52.50
2023-04-10T17:55:48.426Z,52.30
2023-04-10T17:58:15.427Z,52.20
2023-04-10T18:00:43.641Z,52.40
2023-04-10T18:03:10.618Z,52.70
2023-04-10T18:05:39.691Z,52.40
2023-04-10T18:08:07.998Z,52.70
2023-04-10T18:10:35.246Z,52.80
2023-04-10T18:13:02.117Z,52.90
2023-04-10T18:15:29.241Z,52.80
2023-04-10T18:17:56.172Z,52.90
2023-04-10T18:20:22.881Z,52.80
2023-04-10T18:22:49.664Z,53.60
2023-04-10T18:25:16.759Z,53.00
2023-04-10T18:27:51.647Z,53.00
2023-04-10T18:30:31.176Z,52.90
2023-04-10T18:32:57.972Z,52.90
2023-04-10T18:35:24.830Z,52.80
2023-04-10T18:37:51.569Z,53.00
2023-04-10T18:40:18.445Z,53.00
2023-04-10T18:42:46.078Z,53.00
2023-04-10T18:45:13.166Z,53.10
2023-04-10T18:47:40.113Z,53.20
2023-04-10T18:50:09.689Z,53.10
2023-04-10T18:52:36.338Z,53.30
2023-04-10T18:55:03.937Z,53.20
2023-04-10T18:57:30.708Z,53.20
2023-04-10T18:59:57.935Z,53.20
2023-04-10T19:02:24.980Z,53.10
2023-04-10T19:04:53.179Z,53.20
2023-04-10T19:07:20.016Z,53.30
2023-04-10T19:09:47.874Z,53.20
2023-04-10T19:12:14.857Z,53.40
2023-04-10T19:14:41.627Z,53.30
2023-04-10T19:17:08.498Z,53.30
2023-04-10T19:19:35.376Z,53.30
2023-04-10T19:22:02.144Z,53.40
2023-04-10T19:24:29.258Z,53.40
2023-04-10T19:26:56.534Z,53.30
2023-04-10T19:29:23.501Z,53.20
2023-04-10T19:31:50.262Z,53.20
2023-04-10T19:34:17.023Z,53.10
2023-04-10T19:36:43.790Z,53.10
2023-04-10T19:39:10.801Z,53.10
2023-04-10T19:41:42.029Z,52.90
2023-04-10T19:44:09.120Z,52.80
2023-04-10T19:46:36.018Z,52.80
2023-04-10T19:49:03.348Z,53.10
2023-04-10T19:51:30.353Z,53.10
2023-04-10T19:53:58.693Z,52.90
2023-04-10T19:56:27.844Z,52.40
2023-04-10T19:58:54.713Z,52.10
2023-04-10T20:01:24.294Z,52.80
2023-04-10T20:03:51.438Z,52.10
2023-04-10T20:06:18.374Z,51.70
2023-04-10T20:08:45.362Z,51.60
2023-04-10T20:11:12.274Z,51.50
2023-04-10T20:13:40.920Z,51.60
2023-04-10T20:16:08.114Z,51.90
2023-04-10T20:18:34.918Z,52.10
2023-04-10T20:21:01.699Z,52.00
2023-04-10T20:23:28.560Z,52.80
2023-04-10T20:25:55.561Z,52.30
2023-04-10T20:28:22.335Z,52.40
2023-04-10T20:30:49.088Z,52.50
2023-04-10T20:33:15.964Z,52.40
2023-04-10T20:35:42.784Z,52.30
2023-04-10T20:38:09.608Z,51.80
2023-04-10T20:40:36.371Z,51.80
2023-04-10T20:43:03.130Z,51.60
2023-04-10T20:45:30.012Z,51.90
2023-04-10T20:47:57.362Z,51.80
2023-04-10T20:50:24.261Z,52.00
2023-04-10T20:52:51.253Z,52.20
2023-04-10T20:55:18.131Z,51.90
2023-04-10T20:57:45.014Z,52.10
2023-04-10T21:00:12.017Z,52.20
2023-04-10T21:02:39.095Z,52.30
2023-04-10T21:05:06.138Z,52.30
2023-04-10T21:07:32.905Z,52.20
2023-04-10T21:09:59.666Z,52.30
2023-04-10T21:12:26.422Z,51.70
2023-04-10T21:14:53.185Z,51.50
2023-04-10T21:17:20.131Z,51.30
2023-04-10T21:19:47.072Z,51.20
2023-04-10T21:22:13.948Z,51.30
2023-04-10T21:24:40.715Z,51.50
2023-04-10T21:27:08.194Z,51.80
2023-04-10T21:29:35.074Z,51.70
2023-04-10T21:32:01.891Z,52.10
2023-04-10T21:34:28.842Z,52.10
2023-04-10T21:36:55.761Z,52.10
2023-04-10T21:39:22.596Z,52.00
2023-04-10T21:41:49.477Z,51.70
2023-04-10T21:44:16.598Z,51.60
2023-04-10T21:46:43.719Z,51.40
2023-04-10T21:49:10.628Z,51.40
2023-04-10T21:51:37.477Z,51.30
2023-04-10T21:54:04.240Z,51.50
2023-04-10T21:56:31.009Z,51.30
2023-04-10T21:58:57.770Z,51.70
2023-04-10T22:01:24.554Z,51.90
2023-04-10T22:03:51.367Z,51.90
2023-04-10T22:06:18.188Z,51.80
2023-04-10T22:08:44.924Z,51.90
2023-04-10T22:11:11.691Z,51.90
2023-04-10T22:13:38.569Z,51.70
2023-04-10T22:16:06.289Z,51.70
2023-04-10T22:18:33.170Z,51.30
2023-04-10T22:20:59.941Z,51.40
2023-04-10T22:23:26.819Z,51.50
2023-04-10T22:25:53.612Z,51.60
2023-04-10T22:28:20.463Z,52.00
2023-04-10T22:30:47.258Z,51.80
2023-04-10T22:33:14.098Z,51.90
2023-04-10T22:35:41.020Z,51.80
2023-04-10T22:38:07.885Z,51.80
2023-04-10T22:40:34.747Z,51.90
2023-04-10T22:43:01.534Z,51.60
2023-04-10T22:45:28.396Z,51.50
2023-04-10T22:47:55.331Z,51.50
2023-04-10T22:50:22.144Z,51.60
2023-04-10T22:52:49.272Z,52.20
2023-04-10T22:55:16.155Z,51.90
2023-04-10T22:57:46.625Z,51.70
2023-04-10T23:00:13.629Z,51.90
2023-04-10T23:02:40.850Z,52.30
2023-04-10T23:05:08.345Z,51.70
2023-04-10T23:07:35.112Z,51.80
2023-04-10T23:10:01.892Z,51.70
2023-04-10T23:12:28.753Z,51.70
2023-04-10T23:14:55.513Z,51.30
2023-04-10T23:17:22.394Z,51.30
2023-04-10T23:19:49.172Z,51.50
2023-04-10T23:22:16.053Z,51.70
2023-04-10T23:24:42.924Z,52.40
2023-04-10T23:27:09.685Z,51.60
2023-04-10T23:29:36.452Z,51.60
2023-04-10T23:32:03.326Z,51.40
2023-04-10T23:34:30.210Z,50.80
2023-04-10T23:36:58.286Z,51.40
2023-04-10T23:39:25.169Z,51.00
2023-04-10T23:41:52.088Z,51.00
2023-04-10T23:44:18.929Z,51.10
2023-04-10T23:46:45.846Z,50.90
2023-04-10T23:49:12.692Z,50.90
2023-04-10T23:51:39.578Z,51.20
2023-04-10T23:54:06.571Z,51.30
2023-04-10T23:56:33.338Z,51.20
2023-04-10T23:59:00.217Z,51.50
